sensor_id;sensor_type;location;lat;lon;timestamp;P1;durP1;ratioP1;P2;durP2;ratioP2
16426;SDS011;8322;-33.900;151.170;2023-10-09T00:02:15;3.65;;;0.90;;
16426;SDS011;8322;-33.900;151.170;2023-10-09T00:04:44;2.35;;;0.85;;
16426;SDS011;8322;-33.900;151.170;2023-10-09T00:07:14;3.00;;;1.00;;
16426;SDS011;8322;-33.900;151.170;2023-10-09T00:09:45;1.95;;;0.80;;
16426;SDS011;8322;-33.900;151.170;2023-10-09T00:12:16;3.22;;;0.70;;
16426;SDS011;8322;-33.900;151.170;2023-10-09T00:14:48;3.15;;;1.00;;
16426;SDS011;8322;-33.900;151.170;2023-10-09T00:17:23;5.47;;;1.10;;
16426;SDS011;8322;-33.900;151.170;2023-10-09T00:19:57;2.38;;;0.68;;
16426;SDS011;8322;-33.900;151.170;2023-10-09T00:22:43;5.50;;;1.10;;
16426;SDS011;8322;-33.900;151.170;2023-10-09T00:25:13;4.25;;;1.40;;
16426;SDS011;8322;-33.900;151.170;2023-10-09T00:27:48;2.83;;;1.30;;
16426;SDS011;8322;-33.900;151.170;2023-10-09T00:30:18;5.63;;;1.10;;
16426;SDS011;8322;-33.900;151.170;2023-10-09T00:32:57;4.45;;;0.82;;
16426;SDS011;8322;-33.900;151.170;2023-10-09T00:35:27;4.13;;;1.10;;
16426;SDS011;8322;-33.900;151.170;2023-10-09T00:38:20;1.83;;;0.70;;
16426;SDS011;8322;-33.900;151.170;2023-10-09T00:40:59;4.90;;;1.15;;
16426;SDS011;8322;-33.900;151.170;2023-10-09T00:43:36;5.80;;;1.10;;
16426;SDS011;8322;-33.900;151.170;2023-10-09T00:46:09;3.17;;;0.80;;
16426;SDS011;8322;-33.900;151.170;2023-10-09T00:48:51;5.95;;;1.00;;
16426;SDS011;8322;-33.900;151.170;2023-10-09T00:51:21;4.05;;;1.05;;
16426;SDS011;8322;-33.900;151.170;2023-10-09T00:53:53;2.80;;;0.70;;
16426;SDS011;8322;-33.900;151.170;2023-10-09T00:56:23;4.50;;;1.00;;
16426;SDS011;8322;-33.900;151.170;2023-10-09T00:59:05;1.80;;;0.70;;
16426;SDS011;8322;-33.900;151.170;2023-10-09T01:01:40;3.33;;;0.60;;
16426;SDS011;8322;-33.900;151.170;2023-10-09T01:04:23;4.05;;;1.00;;
16426;SDS011;8322;-33.900;151.170;2023-10-09T01:06:55;3.85;;;0.98;;
16426;SDS011;8322;-33.900;151.170;2023-10-09T01:09:34;2.70;;;1.10;;
16426;SDS011;8322;-33.900;151.170;2023-10-09T01:12:04;4.13;;;1.10;;
16426;SDS011;8322;-33.900;151.170;2023-10-09T01:14:42;3.42;;;0.82;;
16426;SDS011;8322;-33.900;151.170;2023-10-09T01:17:12;3.53;;;1.05;;
16426;SDS011;8322;-33.900;151.170;2023-10-09T01:19:58;4.85;;;1.05;;
16426;SDS011;8322;-33.900;151.170;2023-10-09T01:22:31;3.70;;;0.93;;
16426;SDS011;8322;-33.900;151.170;2023-10-09T01:25:02;4.65;;;1.08;;
16426;SDS011;8322;-33.900;151.170;2023-10-09T01:27:32;3.13;;;1.00;;
16426;SDS011;8322;-33.900;151.170;2023-10-09T01:30:06;4.40;;;1.00;;
16426;SDS011;8322;-33.900;151.170;2023-10-09T01:32:40;2.00;;;0.80;;
16426;SDS011;8322;-33.900;151.170;2023-10-09T01:35:11;5.47;;;1.13;;
16426;SDS011;8322;-33.900;151.170;2023-10-09T01:37:46;3.63;;;1.13;;
16426;SDS011;8322;-33.900;151.170;2023-10-09T01:40:19;5.07;;;0.90;;
16426;SDS011;8322;-33.900;151.170;2023-10-09T01:43:01;3.95;;;1.35;;
16426;SDS011;8322;-33.900;151.170;2023-10-09T01:45:35;4.88;;;1.10;;
16426;SDS011;8322;-33.900;151.170;2023-10-09T01:48:12;3.13;;;1.10;;
16426;SDS011;8322;-33.900;151.170;2023-10-09T01:50:49;2.78;;;0.98;;
16426;SDS011;8322;-33.900;151.170;2023-10-09T01:53:19;2.85;;;0.77;;
16426;SDS011;8322;-33.900;151.170;2023-10-09T01:55:56;3.85;;;1.00;;
16426;SDS011;8322;-33.900;151.170;2023-10-09T01:58:35;3.47;;;1.00;;
16426;SDS011;8322;-33.900;151.170;2023-10-09T02:01:05;3.97;;;1.00;;
16426;SDS011;8322;-33.900;151.170;2023-10-09T02:03:35;2.78;;;0.90;;
16426;SDS011;8322;-33.900;151.170;2023-10-09T02:06:08;4.13;;;1.05;;
16426;SDS011;8322;-33.900;151.170;2023-10-09T02:08:51;3.20;;;1.25;;
16426;SDS011;8322;-33.900;151.170;2023-10-09T02:11:24;8.75;;;2.20;;
16426;SDS011;8322;-33.900;151.170;2023-10-09T02:14:05;3.53;;;1.30;;
16426;SDS011;8322;-33.900;151.170;2023-10-09T02:16:45;4.28;;;1.83;;
16426;SDS011;8322;-33.900;151.170;2023-10-09T02:19:29;5.10;;;1.38;;
16426;SDS011;8322;-33.900;151.170;2023-10-09T02:22:00;3.90;;;1.20;;
16426;SDS011;8322;-33.900;151.170;2023-10-09T02:24:39;2.80;;;1.05;;
16426;SDS011;8322;-33.900;151.170;2023-10-09T02:27:25;5.90;;;1.90;;
16426;SDS011;8322;-33.900;151.170;2023-10-09T02:30:19;2.65;;;1.10;;
16426;SDS011;8322;-33.900;151.170;2023-10-09T02:32:55;5.95;;;1.30;;
16426;SDS011;8322;-33.900;151.170;2023-10-09T02:35:33;4.30;;;1.15;;
16426;SDS011;8322;-33.900;151.170;2023-10-09T02:38:08;4.55;;;1.27;;
16426;SDS011;8322;-33.900;151.170;2023-10-09T02:40:40;5.05;;;1.10;;
16426;SDS011;8322;-33.900;151.170;2023-10-09T02:43:35;5.28;;;1.30;;
16426;SDS011;8322;-33.900;151.170;2023-10-09T02:46:10;4.97;;;1.27;;
16426;SDS011;8322;-33.900;151.170;2023-10-09T02:48:43;6.25;;;1.63;;
16426;SDS011;8322;-33.900;151.170;2023-10-09T02:51:17;5.22;;;1.52;;
16426;SDS011;8322;-33.900;151.170;2023-10-09T02:54:04;4.63;;;0.98;;
16426;SDS011;8322;-33.900;151.170;2023-10-09T02:56:53;6.25;;;1.50;;
16426;SDS011;8322;-33.900;151.170;2023-10-09T02:59:34;7.45;;;1.10;;
16426;SDS011;8322;-33.900;151.170;2023-10-09T03:02:10;3.95;;;0.90;;
16426;SDS011;8322;-33.900;151.170;2023-10-09T03:04:40;4.07;;;1.05;;
16426;SDS011;8322;-33.900;151.170;2023-10-09T03:07:10;3.58;;;0.75;;
16426;SDS011;8322;-33.900;151.170;2023-10-09T03:09:40;4.70;;;1.05;;
16426;SDS011;8322;-33.900;151.170;2023-10-09T03:12:09;3.40;;;1.08;;
16426;SDS011;8322;-33.900;151.170;2023-10-09T03:14:41;2.60;;;0.90;;
16426;SDS011;8322;-33.900;151.170;2023-10-09T03:17:11;4.15;;;1.10;;
16426;SDS011;8322;-33.900;151.170;2023-10-09T03:19:41;3.58;;;1.10;;
16426;SDS011;8322;-33.900;151.170;2023-10-09T03:22:12;3.45;;;1.50;;
16426;SDS011;8322;-33.900;151.170;2023-10-09T03:24:41;6.82;;;1.33;;
16426;SDS011;8322;-33.900;151.170;2023-10-09T03:27:11;5.47;;;1.20;;
16426;SDS011;8322;-33.900;151.170;2023-10-09T03:29:44;6.03;;;1.25;;
16426;SDS011;8322;-33.900;151.170;2023-10-09T03:32:16;7.28;;;1.20;;
16426;SDS011;8322;-33.900;151.170;2023-10-09T03:34:46;5.20;;;1.20;;
16426;SDS011;8322;-33.900;151.170;2023-10-09T03:37:17;7.00;;;2.42;;
16426;SDS011;8322;-33.900;151.170;2023-10-09T03:40:00;7.60;;;2.10;;
16426;SDS011;8322;-33.900;151.170;2023-10-09T03:42:33;5.65;;;1.50;;
16426;SDS011;8322;-33.900;151.170;2023-10-09T03:45:10;4.18;;;1.20;;
16426;SDS011;8322;-33.900;151.170;2023-10-09T03:47:52;5.43;;;1.10;;
16426;SDS011;8322;-33.900;151.170;2023-10-09T03:50:27;5.85;;;1.00;;
16426;SDS011;8322;-33.900;151.170;2023-10-09T03:53:02;5.75;;;0.95;;
16426;SDS011;8322;-33.900;151.170;2023-10-09T03:55:35;5.13;;;1.05;;
16426;SDS011;8322;-33.900;151.170;2023-10-09T03:58:06;4.20;;;1.02;;
16426;SDS011;8322;-33.900;151.170;2023-10-09T04:00:39;5.95;;;0.95;;
16426;SDS011;8322;-33.900;151.170;2023-10-09T04:03:15;7.40;;;1.50;;
16426;SDS011;8322;-33.900;151.170;2023-10-09T04:05:46;3.40;;;0.90;;
16426;SDS011;8322;-33.900;151.170;2023-10-09T04:08:17;3.65;;;0.80;;
16426;SDS011;8322;-33.900;151.170;2023-10-09T04:10:54;5.47;;;0.88;;
16426;SDS011;8322;-33.900;151.170;2023-10-09T04:13:27;5.15;;;1.13;;
16426;SDS011;8322;-33.900;151.170;2023-10-09T04:16:03;4.43;;;1.10;;
16426;SDS011;8322;-33.900;151.170;2023-10-09T04:18:53;3.03;;;1.08;;
16426;SDS011;8322;-33.900;151.170;2023-10-09T04:21:25;3.10;;;0.90;;
16426;SDS011;8322;-33.900;151.170;2023-10-09T04:24:03;2.13;;;0.80;;
16426;SDS011;8322;-33.900;151.170;2023-10-09T04:26:50;2.67;;;0.70;;
16426;SDS011;8322;-33.900;151.170;2023-10-09T04:29:28;3.85;;;1.10;;
16426;SDS011;8322;-33.900;151.170;2023-10-09T04:32:07;3.58;;;0.88;;
16426;SDS011;8322;-33.900;151.170;2023-10-09T04:34:42;4.03;;;1.30;;
16426;SDS011;8322;-33.900;151.170;2023-10-09T04:37:22;6.82;;;1.77;;
16426;SDS011;8322;-33.900;151.170;2023-10-09T04:40:03;3.70;;;1.23;;
16426;SDS011;8322;-33.900;151.170;2023-10-09T04:42:40;3.50;;;0.90;;
16426;SDS011;8322;-33.900;151.170;2023-10-09T04:45:24;3.10;;;1.02;;
16426;SDS011;8322;-33.900;151.170;2023-10-09T04:48:11;8.70;;;1.30;;
16426;SDS011;8322;-33.900;151.170;2023-10-09T04:50:58;3.78;;;1.13;;
16426;SDS011;8322;-33.900;151.170;2023-10-09T04:53:47;5.25;;;1.83;;
16426;SDS011;8322;-33.900;151.170;2023-10-09T04:56:26;5.88;;;1.00;;
16426;SDS011;8322;-33.900;151.170;2023-10-09T04:58:58;5.03;;;1.02;;
16426;SDS011;8322;-33.900;151.170;2023-10-09T05:01:34;3.00;;;1.05;;
16426;SDS011;8322;-33.900;151.170;2023-10-09T05:04:13;7.75;;;1.55;;
16426;SDS011;8322;-33.900;151.170;2023-10-09T05:06:56;7.28;;;1.20;;
16426;SDS011;8322;-33.900;151.170;2023-10-09T05:09:25;5.25;;;1.38;;
16426;SDS011;8322;-33.900;151.170;2023-10-09T05:12:14;4.38;;;1.52;;
16426;SDS011;8322;-33.900;151.170;2023-10-09T05:14:43;8.18;;;1.40;;
16426;SDS011;8322;-33.900;151.170;2023-10-09T05:17:33;3.78;;;0.90;;
16426;SDS011;8322;-33.900;151.170;2023-10-09T05:20:06;6.00;;;1.30;;
16426;SDS011;8322;-33.900;151.170;2023-10-09T05:22:53;6.28;;;1.30;;
16426;SDS011;8322;-33.900;151.170;2023-10-09T05:25:45;5.20;;;1.00;;
16426;SDS011;8322;-33.900;151.170;2023-10-09T05:28:45;14.27;;;4.07;;
16426;SDS011;8322;-33.900;151.170;2023-10-09T05:31:18;7.68;;;1.73;;
16426;SDS011;8322;-33.900;151.170;2023-10-09T05:34:22;4.60;;;1.60;;
16426;SDS011;8322;-33.900;151.170;2023-10-09T05:37:01;5.82;;;1.65;;
16426;SDS011;8322;-33.900;151.170;2023-10-09T05:39:44;5.05;;;1.13;;
16426;SDS011;8322;-33.900;151.170;2023-10-09T05:42:34;3.45;;;1.02;;
16426;SDS011;8322;-33.900;151.170;2023-10-09T05:45:11;6.47;;;1.17;;
16426;SDS011;8322;-33.900;151.170;2023-10-09T05:47:57;9.27;;;1.40;;
16426;SDS011;8322;-33.900;151.170;2023-10-09T05:50:33;6.38;;;1.60;;
16426;SDS011;8322;-33.900;151.170;2023-10-09T05:53:04;4.78;;;1.48;;
16426;SDS011;8322;-33.900;151.170;2023-10-09T05:55:43;6.63;;;1.65;;
16426;SDS011;8322;-33.900;151.170;2023-10-09T05:58:29;7.30;;;1.92;;
16426;SDS011;8322;-33.900;151.170;2023-10-09T06:01:17;5.72;;;1.42;;
16426;SDS011;8322;-33.900;151.170;2023-10-09T06:04:03;4.13;;;1.00;;
16426;SDS011;8322;-33.900;151.170;2023-10-09T06:06:41;3.03;;;1.00;;
16426;SDS011;8322;-33.900;151.170;2023-10-09T06:09:13;4.82;;;1.17;;
16426;SDS011;8322;-33.900;151.170;2023-10-09T06:12:00;4.38;;;1.75;;
16426;SDS011;8322;-33.900;151.170;2023-10-09T06:14:46;5.40;;;1.00;;
16426;SDS011;8322;-33.900;151.170;2023-10-09T06:17:45;6.90;;;1.15;;
16426;SDS011;8322;-33.900;151.170;2023-10-09T06:20:17;8.07;;;1.20;;
16426;SDS011;8322;-33.900;151.170;2023-10-09T06:23:03;5.93;;;1.42;;
16426;SDS011;8322;-33.900;151.170;2023-10-09T06:26:03;6.25;;;1.40;;
16426;SDS011;8322;-33.900;151.170;2023-10-09T06:28:50;5.10;;;1.20;;
16426;SDS011;8322;-33.900;151.170;2023-10-09T06:31:40;5.60;;;1.20;;
16426;SDS011;8322;-33.900;151.170;2023-10-09T06:34:27;6.20;;;1.17;;
16426;SDS011;8322;-33.900;151.170;2023-10-09T06:37:11;4.43;;;1.25;;
16426;SDS011;8322;-33.900;151.170;2023-10-09T06:40:00;7.80;;;1.30;;
16426;SDS011;8322;-33.900;151.170;2023-10-09T06:43:13;4.82;;;1.10;;
16426;SDS011;8322;-33.900;151.170;2023-10-09T06:45:43;4.13;;;1.15;;
16426;SDS011;8322;-33.900;151.170;2023-10-09T06:48:21;5.97;;;1.20;;
16426;SDS011;8322;-33.900;151.170;2023-10-09T06:51:11;6.38;;;1.30;;
16426;SDS011;8322;-33.900;151.170;2023-10-09T06:54:04;5.32;;;1.20;;
16426;SDS011;8322;-33.900;151.170;2023-10-09T06:56:36;6.70;;;1.20;;
16426;SDS011;8322;-33.900;151.170;2023-10-09T06:59:20;4.45;;;1.20;;
16426;SDS011;8322;-33.900;151.170;2023-10-09T07:01:51;10.25;;;1.52;;
16426;SDS011;8322;-33.900;151.170;2023-10-09T07:04:33;5.93;;;1.70;;
16426;SDS011;8322;-33.900;151.170;2023-10-09T07:07:21;4.82;;;1.70;;
16426;SDS011;8322;-33.900;151.170;2023-10-09T07:09:52;5.78;;;1.98;;
16426;SDS011;8322;-33.900;151.170;2023-10-09T07:12:52;6.00;;;1.70;;
16426;SDS011;8322;-33.900;151.170;2023-10-09T07:15:25;6.60;;;1.55;;
16426;SDS011;8322;-33.900;151.170;2023-10-09T07:18:11;6.68;;;1.58;;
16426;SDS011;8322;-33.900;151.170;2023-10-09T07:21:13;5.70;;;1.63;;
16426;SDS011;8322;-33.900;151.170;2023-10-09T07:23:55;11.70;;;1.40;;
16426;SDS011;8322;-33.900;151.170;2023-10-09T07:26:40;8.90;;;2.60;;
16426;SDS011;8322;-33.900;151.170;2023-10-09T07:29:19;7.68;;;1.80;;
16426;SDS011;8322;-33.900;151.170;2023-10-09T07:31:58;6.60;;;1.77;;
16426;SDS011;8322;-33.900;151.170;2023-10-09T07:34:38;7.47;;;1.90;;
16426;SDS011;8322;-33.900;151.170;2023-10-09T07:37:23;7.28;;;2.20;;
16426;SDS011;8322;-33.900;151.170;2023-10-09T07:39:57;7.80;;;2.00;;
16426;SDS011;8322;-33.900;151.170;2023-10-09T07:42:33;5.93;;;1.63;;
16426;SDS011;8322;-33.900;151.170;2023-10-09T07:45:10;11.18;;;2.20;;
16426;SDS011;8322;-33.900;151.170;2023-10-09T07:48:03;8.85;;;3.00;;
16426;SDS011;8322;-33.900;151.170;2023-10-09T07:50:40;9.05;;;2.30;;
16426;SDS011;8322;-33.900;151.170;2023-10-09T07:53:14;5.70;;;1.80;;
16426;SDS011;8322;-33.900;151.170;2023-10-09T07:55:52;7.13;;;2.90;;
16426;SDS011;8322;-33.900;151.170;2023-10-09T07:58:33;10.40;;;2.30;;
16426;SDS011;8322;-33.900;151.170;2023-10-09T08:01:12;6.80;;;2.22;;
16426;SDS011;8322;-33.900;151.170;2023-10-09T08:04:04;10.20;;;2.17;;
16426;SDS011;8322;-33.900;151.170;2023-10-09T08:06:37;7.15;;;1.77;;
16426;SDS011;8322;-33.900;151.170;2023-10-09T08:09:08;6.35;;;2.00;;
16426;SDS011;8322;-33.900;151.170;2023-10-09T08:12:12;11.20;;;3.75;;
16426;SDS011;8322;-33.900;151.170;2023-10-09T08:15:02;11.32;;;6.25;;
16426;SDS011;8322;-33.900;151.170;2023-10-09T08:17:54;12.57;;;3.35;;
16426;SDS011;8322;-33.900;151.170;2023-10-09T08:20:27;8.23;;;2.13;;
16426;SDS011;8322;-33.900;151.170;2023-10-09T08:23:17;4.18;;;1.77;;
16426;SDS011;8322;-33.900;151.170;2023-10-09T08:25:59;10.73;;;2.70;;
16426;SDS011;8322;-33.900;151.170;2023-10-09T08:28:39;9.07;;;2.42;;
16426;SDS011;8322;-33.900;151.170;2023-10-09T08:31:09;8.52;;;2.47;;
16426;SDS011;8322;-33.900;151.170;2023-10-09T08:34:00;8.60;;;3.20;;
16426;SDS011;8322;-33.900;151.170;2023-10-09T08:36:32;7.07;;;1.83;;
16426;SDS011;8322;-33.900;151.170;2023-10-09T08:39:04;6.55;;;2.00;;
16426;SDS011;8322;-33.900;151.170;2023-10-09T08:41:43;11.70;;;2.53;;
16426;SDS011;8322;-33.900;151.170;2023-10-09T08:44:14;7.43;;;2.47;;
16426;SDS011;8322;-33.900;151.170;2023-10-09T08:46:49;8.10;;;2.78;;
16426;SDS011;8322;-33.900;151.170;2023-10-09T08:49:20;6.30;;;2.03;;
16426;SDS011;8322;-33.900;151.170;2023-10-09T08:51:53;6.05;;;1.90;;
16426;SDS011;8322;-33.900;151.170;2023-10-09T08:54:23;10.63;;;2.20;;
16426;SDS011;8322;-33.900;151.170;2023-10-09T08:56:54;7.85;;;1.55;;
16426;SDS011;8322;-33.900;151.170;2023-10-09T08:59:25;5.97;;;1.70;;
16426;SDS011;8322;-33.900;151.170;2023-10-09T09:01:56;10.63;;;2.70;;
16426;SDS011;8322;-33.900;151.170;2023-10-09T09:04:38;11.85;;;3.67;;
16426;SDS011;8322;-33.900;151.170;2023-10-09T09:10:02;11.05;;;2.00;;
16426;SDS011;8322;-33.900;151.170;2023-10-09T09:12:43;25.85;;;7.32;;
16426;SDS011;8322;-33.900;151.170;2023-10-09T09:15:14;9.73;;;2.95;;
16426;SDS011;8322;-33.900;151.170;2023-10-09T09:17:47;11.70;;;2.92;;
16426;SDS011;8322;-33.900;151.170;2023-10-09T09:20:21;10.85;;;2.92;;
16426;SDS011;8322;-33.900;151.170;2023-10-09T09:22:56;9.38;;;2.30;;
16426;SDS011;8322;-33.900;151.170;2023-10-09T09:25:41;11.77;;;2.20;;
16426;SDS011;8322;-33.900;151.170;2023-10-09T09:28:14;7.45;;;2.38;;
16426;SDS011;8322;-33.900;151.170;2023-10-09T09:30:48;8.52;;;1.85;;
16426;SDS011;8322;-33.900;151.170;2023-10-09T09:33:21;7.53;;;2.13;;
16426;SDS011;8322;-33.900;151.170;2023-10-09T09:36:06;11.02;;;2.25;;
16426;SDS011;8322;-33.900;151.170;2023-10-09T09:38:41;9.00;;;4.03;;
16426;SDS011;8322;-33.900;151.170;2023-10-09T09:41:16;13.00;;;5.10;;
16426;SDS011;8322;-33.900;151.170;2023-10-09T09:43:52;8.85;;;2.47;;
16426;SDS011;8322;-33.900;151.170;2023-10-09T09:46:26;7.97;;;1.83;;
16426;SDS011;8322;-33.900;151.170;2023-10-09T09:49:00;7.07;;;1.48;;
16426;SDS011;8322;-33.900;151.170;2023-10-09T09:51:33;4.90;;;1.50;;
16426;SDS011;8322;-33.900;151.170;2023-10-09T09:54:04;5.80;;;1.60;;
16426;SDS011;8322;-33.900;151.170;2023-10-09T09:56:37;3.20;;;1.30;;
16426;SDS011;8322;-33.900;151.170;2023-10-09T09:59:09;5.75;;;1.88;;
16426;SDS011;8322;-33.900;151.170;2023-10-09T10:01:47;9.20;;;1.95;;
16426;SDS011;8322;-33.900;151.170;2023-10-09T10:04:24;4.35;;;1.50;;
16426;SDS011;8322;-33.900;151.170;2023-10-09T10:06:55;7.20;;;1.92;;
16426;SDS011;8322;-33.900;151.170;2023-10-09T10:09:36;5.85;;;1.45;;
16426;SDS011;8322;-33.900;151.170;2023-10-09T10:12:10;4.45;;;1.40;;
16426;SDS011;8322;-33.900;151.170;2023-10-09T10:14:53;7.38;;;1.75;;
16426;SDS011;8322;-33.900;151.170;2023-10-09T10:17:25;4.28;;;1.10;;
16426;SDS011;8322;-33.900;151.170;2023-10-09T10:19:59;5.57;;;1.40;;
16426;SDS011;8322;-33.900;151.170;2023-10-09T10:22:48;2.97;;;1.10;;
16426;SDS011;8322;-33.900;151.170;2023-10-09T10:25:34;5.35;;;1.00;;
16426;SDS011;8322;-33.900;151.170;2023-10-09T10:28:20;4.45;;;1.20;;
16426;SDS011;8322;-33.900;151.170;2023-10-09T10:31:10;5.88;;;1.25;;
16426;SDS011;8322;-33.900;151.170;2023-10-09T10:36:33;8.18;;;3.25;;
16426;SDS011;8322;-33.900;151.170;2023-10-09T10:39:08;6.07;;;2.00;;
16426;SDS011;8322;-33.900;151.170;2023-10-09T10:41:56;4.00;;;1.27;;
16426;SDS011;8322;-33.900;151.170;2023-10-09T10:44:33;2.55;;;1.33;;
16426;SDS011;8322;-33.900;151.170;2023-10-09T10:47:05;4.50;;;1.40;;
16426;SDS011;8322;-33.900;151.170;2023-10-09T10:49:49;4.40;;;1.00;;
16426;SDS011;8322;-33.900;151.170;2023-10-09T10:52:24;3.60;;;1.25;;
16426;SDS011;8322;-33.900;151.170;2023-10-09T10:55:11;3.63;;;1.20;;
16426;SDS011;8322;-33.900;151.170;2023-10-09T10:58:17;5.63;;;1.20;;
16426;SDS011;8322;-33.900;151.170;2023-10-09T11:00:56;3.13;;;0.95;;
16426;SDS011;8322;-33.900;151.170;2023-10-09T11:03:38;3.20;;;1.15;;
16426;SDS011;8322;-33.900;151.170;2023-10-09T11:06:29;4.68;;;1.10;;
16426;SDS011;8322;-33.900;151.170;2023-10-09T11:09:08;3.53;;;1.38;;
16426;SDS011;8322;-33.900;151.170;2023-10-09T11:11:48;3.00;;;1.15;;
16426;SDS011;8322;-33.900;151.170;2023-10-09T11:14:21;5.63;;;1.40;;
16426;SDS011;8322;-33.900;151.170;2023-10-09T11:16:53;4.82;;;1.10;;
16426;SDS011;8322;-33.900;151.170;2023-10-09T11:19:29;6.38;;;1.30;;
16426;SDS011;8322;-33.900;151.170;2023-10-09T11:22:06;5.57;;;1.50;;
16426;SDS011;8322;-33.900;151.170;2023-10-09T11:25:02;5.75;;;1.30;;
16426;SDS011;8322;-33.900;151.170;2023-10-09T11:27:44;5.38;;;1.30;;
16426;SDS011;8322;-33.900;151.170;2023-10-09T11:30:21;3.92;;;1.10;;
16426;SDS011;8322;-33.900;151.170;2023-10-09T11:33:07;5.18;;;1.40;;
16426;SDS011;8322;-33.900;151.170;2023-10-09T11:35:52;4.43;;;1.30;;
16426;SDS011;8322;-33.900;151.170;2023-10-09T11:38:23;7.50;;;1.90;;
16426;SDS011;8322;-33.900;151.170;2023-10-09T11:40:55;6.40;;;1.50;;
16426;SDS011;8322;-33.900;151.170;2023-10-09T11:43:47;3.53;;;1.40;;
16426;SDS011;8322;-33.900;151.170;2023-10-09T11:46:21;4.20;;;1.70;;
16426;SDS011;8322;-33.900;151.170;2023-10-09T11:49:18;5.05;;;1.60;;
16426;SDS011;8322;-33.900;151.170;2023-10-09T11:52:08;4.05;;;1.25;;
16426;SDS011;8322;-33.900;151.170;2023-10-09T11:54:53;4.10;;;1.63;;
16426;SDS011;8322;-33.900;151.170;2023-10-09T11:57:25;4.93;;;1.52;;
16426;SDS011;8322;-33.900;151.170;2023-10-09T12:00:01;3.58;;;1.20;;
16426;SDS011;8322;-33.900;151.170;2023-10-09T12:02:51;2.80;;;1.20;;
16426;SDS011;8322;-33.900;151.170;2023-10-09T12:05:24;7.15;;;1.73;;
16426;SDS011;8322;-33.900;151.170;2023-10-09T12:07:54;7.28;;;1.52;;
16426;SDS011;8322;-33.900;151.170;2023-10-09T12:10:25;5.32;;;1.30;;
16426;SDS011;8322;-33.900;151.170;2023-10-09T12:12:56;3.30;;;1.45;;
16426;SDS011;8322;-33.900;151.170;2023-10-09T12:15:26;5.88;;;1.70;;
16426;SDS011;8322;-33.900;151.170;2023-10-09T12:18:04;8.38;;;2.08;;
16426;SDS011;8322;-33.900;151.170;2023-10-09T12:20:37;4.18;;;1.42;;
16426;SDS011;8322;-33.900;151.170;2023-10-09T12:23:07;7.72;;;1.60;;
16426;SDS011;8322;-33.900;151.170;2023-10-09T12:25:41;4.43;;;1.30;;
16426;SDS011;8322;-33.900;151.170;2023-10-09T12:28:12;6.18;;;1.67;;
16426;SDS011;8322;-33.900;151.170;2023-10-09T12:30:46;4.93;;;1.55;;
16426;SDS011;8322;-33.900;151.170;2023-10-09T12:33:18;4.95;;;1.33;;
16426;SDS011;8322;-33.900;151.170;2023-10-09T12:35:55;10.25;;;1.58;;
16426;SDS011;8322;-33.900;151.170;2023-10-09T12:38:26;8.25;;;1.80;;
16426;SDS011;8322;-33.900;151.170;2023-10-09T12:41:03;8.43;;;1.58;;
16426;SDS011;8322;-33.900;151.170;2023-10-09T12:43:44;6.50;;;1.40;;
16426;SDS011;8322;-33.900;151.170;2023-10-09T12:46:14;8.00;;;1.58;;
16426;SDS011;8322;-33.900;151.170;2023-10-09T12:48:44;5.28;;;1.10;;
16426;SDS011;8322;-33.900;151.170;2023-10-09T12:51:16;8.23;;;1.70;;
16426;SDS011;8322;-33.900;151.170;2023-10-09T12:53:47;5.68;;;1.40;;
16426;SDS011;8322;-33.900;151.170;2023-10-09T12:56:23;8.18;;;1.60;;
16426;SDS011;8322;-33.900;151.170;2023-10-09T12:58:59;7.35;;;1.73;;
16426;SDS011;8322;-33.900;151.170;2023-10-09T13:01:31;8.75;;;1.80;;
16426;SDS011;8322;-33.900;151.170;2023-10-09T13:04:08;9.30;;;1.60;;
16426;SDS011;8322;-33.900;151.170;2023-10-09T13:06:44;7.60;;;1.70;;
16426;SDS011;8322;-33.900;151.170;2023-10-09T13:09:15;6.38;;;1.50;;
16426;SDS011;8322;-33.900;151.170;2023-10-09T13:11:51;6.75;;;1.42;;
16426;SDS011;8322;-33.900;151.170;2023-10-09T13:14:25;10.27;;;2.03;;
16426;SDS011;8322;-33.900;151.170;2023-10-09T13:16:56;6.13;;;1.55;;
16426;SDS011;8322;-33.900;151.170;2023-10-09T13:19:26;8.27;;;1.60;;
16426;SDS011;8322;-33.900;151.170;2023-10-09T13:21:59;9.93;;;1.95;;
16426;SDS011;8322;-33.900;151.170;2023-10-09T13:24:30;9.32;;;1.65;;
16426;SDS011;8322;-33.900;151.170;2023-10-09T13:27:05;10.48;;;1.92;;
16426;SDS011;8322;-33.900;151.170;2023-10-09T13:29:36;8.00;;;1.88;;
16426;SDS011;8322;-33.900;151.170;2023-10-09T13:32:07;8.75;;;2.10;;
16426;SDS011;8322;-33.900;151.170;2023-10-09T13:34:42;9.05;;;1.80;;
16426;SDS011;8322;-33.900;151.170;2023-10-09T13:37:15;8.63;;;2.10;;
16426;SDS011;8322;-33.900;151.170;2023-10-09T13:39:48;6.70;;;1.50;;
16426;SDS011;8322;-33.900;151.170;2023-10-09T13:42:22;4.93;;;1.73;;
16426;SDS011;8322;-33.900;151.170;2023-10-09T13:44:53;12.98;;;2.38;;
16426;SDS011;8322;-33.900;151.170;2023-10-09T13:47:23;9.43;;;2.00;;
16426;SDS011;8322;-33.900;151.170;2023-10-09T13:49:58;11.63;;;2.05;;
16426;SDS011;8322;-33.900;151.170;2023-10-09T13:52:30;16.13;;;2.47;;
16426;SDS011;8322;-33.900;151.170;2023-10-09T13:55:05;10.00;;;1.73;;
16426;SDS011;8322;-33.900;151.170;2023-10-09T13:57:43;8.80;;;1.85;;
16426;SDS011;8322;-33.900;151.170;2023-10-09T14:00:14;11.77;;;1.88;;
16426;SDS011;8322;-33.900;151.170;2023-10-09T14:02:58;8.52;;;2.28;;
16426;SDS011;8322;-33.900;151.170;2023-10-09T14:05:39;8.23;;;2.10;;
16426;SDS011;8322;-33.900;151.170;2023-10-09T14:08:22;11.15;;;2.33;;
16426;SDS011;8322;-33.900;151.170;2023-10-09T14:10:55;17.17;;;3.97;;
16426;SDS011;8322;-33.900;151.170;2023-10-09T14:13:26;13.95;;;3.17;;
16426;SDS011;8322;-33.900;151.170;2023-10-09T14:15:57;14.93;;;3.53;;
16426;SDS011;8322;-33.900;151.170;2023-10-09T14:18:28;17.27;;;3.72;;
16426;SDS011;8322;-33.900;151.170;2023-10-09T14:21:01;19.92;;;4.35;;
16426;SDS011;8322;-33.900;151.170;2023-10-09T14:23:44;20.90;;;4.00;;
16426;SDS011;8322;-33.900;151.170;2023-10-09T14:26:14;15.55;;;4.50;;
16426;SDS011;8322;-33.900;151.170;2023-10-09T14:28:49;24.13;;;4.80;;
16426;SDS011;8322;-33.900;151.170;2023-10-09T14:31:19;19.70;;;4.53;;
16426;SDS011;8322;-33.900;151.170;2023-10-09T14:33:53;15.25;;;4.40;;
16426;SDS011;8322;-33.900;151.170;2023-10-09T14:36:24;18.00;;;4.18;;
16426;SDS011;8322;-33.900;151.170;2023-10-09T14:39:01;18.85;;;4.15;;
16426;SDS011;8322;-33.900;151.170;2023-10-09T14:41:33;13.43;;;3.30;;
16426;SDS011;8322;-33.900;151.170;2023-10-09T14:44:03;18.63;;;3.38;;
16426;SDS011;8322;-33.900;151.170;2023-10-09T14:46:34;13.32;;;3.15;;
16426;SDS011;8322;-33.900;151.170;2023-10-09T14:49:04;10.00;;;2.47;;
16426;SDS011;8322;-33.900;151.170;2023-10-09T14:51:43;5.18;;;1.83;;
16426;SDS011;8322;-33.900;151.170;2023-10-09T14:54:15;11.25;;;2.65;;
16426;SDS011;8322;-33.900;151.170;2023-10-09T14:56:47;9.63;;;2.35;;
16426;SDS011;8322;-33.900;151.170;2023-10-09T14:59:20;10.70;;;2.50;;
16426;SDS011;8322;-33.900;151.170;2023-10-09T15:01:51;14.55;;;2.42;;
16426;SDS011;8322;-33.900;151.170;2023-10-09T15:04:23;11.27;;;2.42;;
16426;SDS011;8322;-33.900;151.170;2023-10-09T15:06:54;10.73;;;2.40;;
16426;SDS011;8322;-33.900;151.170;2023-10-09T15:09:26;10.60;;;2.40;;
16426;SDS011;8322;-33.900;151.170;2023-10-09T15:11:57;11.52;;;2.60;;
16426;SDS011;8322;-33.900;151.170;2023-10-09T15:14:28;9.20;;;2.60;;
16426;SDS011;8322;-33.900;151.170;2023-10-09T15:16:58;10.07;;;2.28;;
16426;SDS011;8322;-33.900;151.170;2023-10-09T15:19:29;11.07;;;2.40;;
16426;SDS011;8322;-33.900;151.170;2023-10-09T15:21:59;8.70;;;2.40;;
16426;SDS011;8322;-33.900;151.170;2023-10-09T15:24:38;12.43;;;2.72;;